Time;durP1;ratioP1;P1;durP2;ratioP2;P2;SDS_P1;SDS_P2;PMS_P1;PMS_P2;Temp;Humidity;BMP_temperature;BMP_pressure;BME280_temperature;BME280_humidity;BME280_pressure;Samples;Min_cycle;Max_cycle;Signal;HPM_P1;HPM_P2
2022/03/15 00:05:22;;;;;;;84.33;39.93;;;3.80;99.90;;;;;;10348981;28;20248;-83
2022/03/15 00:10:45;;;;;;;93.43;45.87;;;3.60;99.90;;;;;;10345364;28;20234;-84
2022/03/15 00:16:10;;;;;;;88.60;45.73;;;3.50;99.90;;;;;;10331961;28;20204;-83
2022/03/15 00:21:32;;;;;;;92.60;46.90;;;3.40;99.90;;;;;;10344966;28;20254;-84
2022/03/15 00:26:54;;;;;;;92.70;44.83;;;3.30;99.90;;;;;;10344467;28;20550;-83
2022/03/15 00:32:19;;;;;;;87.17;45.03;;;3.20;99.90;;;;;;10358420;28;20215;-84
2022/03/15 00:37:44;;;;;;;81.00;42.83;;;3.20;99.90;;;;;;10319315;28;20370;-84
2022/03/15 00:43:06;;;;;;;71.53;41.33;;;3.20;99.90;;;;;;10317159;28;20252;-84
2022/03/15 00:48:28;;;;;;;66.67;38.33;;;3.30;99.90;;;;;;10332450;28;20218;-84
2022/03/15 00:53:50;;;;;;;67.87;38.43;;;3.30;99.90;;;;;;10357427;28;20204;-84
2022/03/15 00:59:14;;;;;;;65.47;37.20;;;3.20;99.90;;;;;;10343429;28;20230;-84
2022/03/15 01:04:36;;;;;;;60.90;36.27;;;3.20;99.90;;;;;;10347375;28;20206;-84
2022/03/15 01:09:59;;;;;;;64.37;34.87;;;3.10;99.90;;;;;;10343565;28;20252;-84
2022/03/15 01:15:23;;;;;;;61.73;36.80;;;3.10;99.90;;;;;;10343031;28;20290;-84
2022/03/15 01:20:47;;;;;;;67.73;37.13;;;3.00;99.90;;;;;;10343092;28;20562;-84
2022/03/15 01:26:09;;;;;;;64.53;36.50;;;3.00;99.90;;;;;;10356258;28;20419;-84
2022/03/15 01:31:34;;;;;;;57.07;35.60;;;2.90;99.90;;;;;;10356037;28;20405;-83
2022/03/15 01:36:58;;;;;;;60.40;35.97;;;2.80;99.90;;;;;;10342300;28;20279;-84
2022/03/15 01:42:21;;;;;;;61.77;36.47;;;2.70;99.90;;;;;;10342398;28;20233;-84
2022/03/15 01:47:46;;;;;;;65.20;35.30;;;2.60;99.90;;;;;;10341995;28;20279;-84
2022/03/15 01:53:08;;;;;;;83.60;43.33;;;2.60;99.90;;;;;;10341917;28;20200;-84
2022/03/15 01:58:34;;;;;;;85.97;43.23;;;2.70;99.90;;;;;;10355887;28;20204;-84
2022/03/15 02:03:59;;;;;;;79.67;40.70;;;2.80;99.90;;;;;;10341341;28;20227;-84
2022/03/15 02:09:21;;;;;;;74.33;40.03;;;2.90;99.90;;;;;;10313613;28;20234;-84
2022/03/15 02:14:43;;;;;;;67.83;38.10;;;2.80;99.90;;;;;;10315752;28;20199;-83
2022/03/15 02:20:10;;;;;;;74.97;40.77;;;2.80;99.90;;;;;;10287651;28;20200;-84
2022/03/15 02:25:32;;;;;;;67.10;37.63;;;2.70;99.90;;;;;;10352640;28;20399;-82
2022/03/15 02:30:55;;;;;;;69.67;37.37;;;2.40;99.90;;;;;;10354343;28;20287;-82
2022/03/15 02:36:17;;;;;;;73.60;40.27;;;2.30;99.90;;;;;;10353052;28;20240;-82
2022/03/15 02:41:39;;;;;;;77.33;41.27;;;2.20;99.90;;;;;;10340403;28;20540;-82
2022/03/15 02:47:01;;;;;;;73.03;40.40;;;2.30;99.90;;;;;;10340340;28;20299;-83
2022/03/15 02:52:25;;;;;;;66.17;38.40;;;2.20;99.90;;;;;;10322660;28;20488;-83
2022/03/15 02:57:48;;;;;;;78.20;40.83;;;2.20;99.90;;;;;;10300392;28;20202;-82
2022/03/15 03:03:13;;;;;;;77.50;41.97;;;2.20;99.90;;;;;;10304908;28;20473;-83
2022/03/15 03:08:35;;;;;;;75.07;40.90;;;2.20;99.90;;;;;;10346114;28;20301;-83
2022/03/15 03:13:57;;;;;;;75.67;40.27;;;2.10;99.90;;;;;;10347752;28;20197;-82
2022/03/15 03:19:21;;;;;;;79.17;43.00;;;2.00;99.90;;;;;;10348115;28;20244;-82
2022/03/15 03:24:43;;;;;;;79.57;42.60;;;1.90;99.90;;;;;;10324602;28;20201;-83
2022/03/15 03:30:07;;;;;;;77.00;42.43;;;1.80;99.90;;;;;;10306741;28;20205;-82
2022/03/15 03:35:30;;;;;;;76.47;41.60;;;1.70;99.90;;;;;;10319853;28;20204;-82
2022/03/15 03:40:52;;;;;;;74.80;40.57;;;1.70;99.90;;;;;;10319816;28;20245;-82
2022/03/15 03:46:15;;;;;;;65.43;38.03;;;1.60;99.90;;;;;;10319637;28;20245;-82
2022/03/15 03:51:37;;;;;;;73.40;42.73;;;1.40;99.90;;;;;;10332169;28;20224;-82
2022/03/15 03:57:00;;;;;;;77.13;42.43;;;1.50;99.90;;;;;;10346071;28;20204;-82
2022/03/15 04:02:22;;;;;;;85.00;47.07;;;1.60;99.90;;;;;;10345773;28;20205;-82
2022/03/15 04:07:44;;;;;;;95.13;51.00;;;1.50;99.90;;;;;;10343274;28;20228;-83
2022/03/15 04:13:16;;;;;;;85.67;49.07;;;1.40;99.90;;;;;;10333330;28;20240;-83
2022/03/15 04:18:39;;;;;;;98.57;51.33;;;1.30;99.90;;;;;;10345233;28;20593;-82
2022/03/15 04:24:01;;;;;;;90.00;50.33;;;1.30;99.90;;;;;;10326456;28;20361;-81
2022/03/15 04:29:23;;;;;;;96.73;52.43;;;1.20;99.90;;;;;;10341473;28;20228;-82
2022/03/15 04:34:45;;;;;;;95.80;51.50;;;1.20;99.90;;;;;;10344264;28;20202;-83
2022/03/15 04:40:09;;;;;;;101.00;53.27;;;1.10;99.90;;;;;;10344051;28;20539;-83
2022/03/15 04:45:34;;;;;;;148.53;70.27;;;1.10;99.90;;;;;;10344559;28;20229;-81
2022/03/15 04:50:56;;;;;;;150.03;74.97;;;1.10;99.90;;;;;;10336762;28;20553;-81
2022/03/15 04:56:19;;;;;;;158.57;75.47;;;0.90;99.90;;;;;;10303598;28;20235;-80
2022/03/15 05:01:41;;;;;;;145.17;72.73;;;0.90;99.90;;;;;;10303076;28;20492;-80
2022/03/15 05:07:03;;;;;;;139.63;67.87;;;0.90;99.90;;;;;;10330487;28;20255;-82
2022/03/15 05:12:27;;;;;;;131.23;67.60;;;1.00;99.90;;;;;;10343443;28;20243;-82
2022/03/15 05:17:50;;;;;;;134.33;67.23;;;0.90;99.90;;;;;;10356248;28;20200;-80
2022/03/15 05:23:11;;;;;;;142.73;71.27;;;0.90;99.90;;;;;;10341879;28;20197;-83
2022/03/15 05:28:34;;;;;;;134.03;66.60;;;0.90;99.90;;;;;;10342581;28;20300;-82
2022/03/15 05:33:58;;;;;;;104.23;55.60;;;0.90;99.90;;;;;;10356066;28;20284;-82
2022/03/15 05:39:20;;;;;;;118.40;57.97;;;1.00;99.90;;;;;;10342017;28;20201;-81
2022/03/15 05:44:43;;;;;;;118.83;59.07;;;1.00;99.90;;;;;;10342130;28;20269;-82
2022/03/15 05:50:06;;;;;;;125.20;61.27;;;1.00;99.90;;;;;;10341473;28;20383;-82
2022/03/15 05:55:32;;;;;;;263.60;107.20;;;1.00;99.90;;;;;;10304887;28;20394;-82
2022/03/15 06:00:56;;;;;;;296.13;118.60;;;1.10;99.90;;;;;;10301010;28;20253;-81
2022/03/15 06:06:21;;;;;;;234.53;97.63;;;1.20;99.90;;;;;;10322905;28;20238;-81
2022/03/15 06:11:43;;;;;;;158.33;71.83;;;1.40;99.90;;;;;;10327347;28;20200;-81
2022/03/15 06:17:05;;;;;;;130.07;62.50;;;1.50;99.90;;;;;;10327615;28;20224;-82
2022/03/15 06:22:28;;;;;;;119.23;61.50;;;1.70;99.90;;;;;;10356491;28;20206;-82
2022/03/15 06:27:50;;;;;;;205.07;107.50;;;1.90;99.90;;;;;;10340485;28;20231;-81
2022/03/15 06:33:13;;;;;;;238.90;118.30;;;2.00;99.90;;;;;;10340018;28;20201;-80
2022/03/15 06:38:35;;;;;;;182.13;101.23;;;2.10;99.90;;;;;;10346149;28;20213;-80
2022/03/15 06:43:57;;;;;;;168.10;92.43;;;2.20;99.90;;;;;;10348566;28;20230;-80
2022/03/15 06:49:19;;;;;;;170.27;95.47;;;2.50;99.90;;;;;;10348703;28;20220;-80
2022/03/15 06:54:42;;;;;;;156.40;87.63;;;2.70;99.90;;;;;;10347290;28;20211;-80
2022/03/15 07:00:13;;;;;;;155.73;84.43;;;3.20;99.90;;;;;;10361418;28;20435;-80
2022/03/15 07:05:37;;;;;;;204.83;106.67;;;4.40;99.90;;;;;;10352084;28;20266;-82
2022/03/15 07:11:03;;;;;;;116.03;65.63;;;6.30;99.90;;;;;;10348316;28;20246;-82
2022/03/15 07:16:25;;;;;;;75.97;42.90;;;7.60;99.10;;;;;;10347674;28;20268;-82
2022/03/15 07:21:48;;;;;;;75.55;40.00;;;8.80;94.40;;;;;;10360804;28;20540;-84
2022/03/15 07:27:10;;;;;;;54.63;34.08;;;9.90;77.40;;;;;;10346976;28;20230;-83
2022/03/15 07:32:32;;;;;;;54.75;31.92;;;10.60;69.10;;;;;;10361091;28;20204;-83
2022/03/15 07:37:55;;;;;;;52.47;30.83;;;10.90;62.40;;;;;;10360412;28;20205;-84
2022/03/15 07:43:19;;;;;;;47.72;30.85;;;11.50;55.90;;;;;;10347520;28;20284;-82
2022/03/15 07:48:42;;;;;;;44.83;30.02;;;12.10;50.80;;;;;;10359379;28;20547;-83
2022/03/15 07:54:04;;;;;;;43.30;29.73;;;12.60;47.00;;;;;;10330926;28;20388;-83
2022/03/15 07:59:26;;;;;;;45.88;27.60;;;12.70;43.60;;;;;;10361047;28;20196;-82
2022/03/15 08:04:48;;;;;;;41.08;27.38;;;13.10;43.20;;;;;;10334042;28;20280;-82
2022/03/15 08:10:10;;;;;;;45.47;27.30;;;13.70;40.40;;;;;;10332600;28;20551;-83
2022/03/15 08:15:34;;;;;;;41.72;26.05;;;13.90;39.60;;;;;;10357179;28;20205;-79
2022/03/15 08:20:59;;;;;;;38.83;25.45;;;14.50;37.80;;;;;;10310673;28;20238;-82
2022/03/15 08:26:21;;;;;;;41.92;26.38;;;15.20;35.60;;;;;;10302453;28;20304;-82
2022/03/15 08:31:44;;;;;;;36.90;23.25;;;15.50;34.40;;;;;;10313520;28;20505;-82
2022/03/15 08:37:08;;;;;;;38.28;25.60;;;15.90;34.40;;;;;;10336798;28;20194;-83
2022/03/15 08:42:34;;;;;;;32.95;24.35;;;16.40;32.90;;;;;;10351817;28;20229;-86
2022/03/15 08:47:56;;;;;;;37.33;26.02;;;16.40;33.10;;;;;;10338195;28;20256;-81
2022/03/15 08:53:19;;;;;;;41.20;26.38;;;16.70;33.10;;;;;;10336068;28;20520;-83
2022/03/15 08:58:41;;;;;;;41.00;26.27;;;17.00;32.90;;;;;;10347819;28;20551;-79
2022/03/15 09:04:03;;;;;;;37.47;26.05;;;16.80;33.70;;;;;;10335994;28;20212;-81
2022/03/15 09:09:27;;;;;;;33.30;24.35;;;16.90;35.10;;;;;;10310906;28;20234;-80
2022/03/15 09:14:50;;;;;;;29.42;22.27;;;17.00;35.30;;;;;;10339854;28;20663;-81
2022/03/15 09:20:14;;;;;;;28.25;20.85;;;17.20;35.70;;;;;;10334798;28;20276;-81
2022/03/15 09:25:37;;;;;;;36.15;23.02;;;17.70;35.20;;;;;;10310051;28;20195;-81
2022/03/15 09:31:00;;;;;;;28.90;20.83;;;18.10;35.20;;;;;;10297092;28;20404;-80
2022/03/15 09:36:23;;;;;;;30.52;19.17;;;18.30;34.60;;;;;;10294631;28;20221;-81
2022/03/15 09:41:50;;;;;;;29.42;20.48;;;18.60;34.30;;;;;;10296251;28;20248;-79
2022/03/15 09:47:17;;;;;;;32.30;23.77;;;18.30;34.00;;;;;;10309810;28;20548;-79
2022/03/15 09:52:40;;;;;;;32.10;22.00;;;17.60;36.90;;;;;;10312140;28;20504;-80
2022/03/15 09:58:04;;;;;;;26.92;20.88;;;17.70;37.60;;;;;;10295513;28;20249;-80
2022/03/15 10:03:26;;;;;;;26.67;21.15;;;18.20;37.00;;;;;;10295874;28;20516;-80
2022/03/15 10:08:49;;;;;;;23.60;18.00;;;18.90;35.30;;;;;;10318301;28;20236;-80
2022/03/15 10:14:12;;;;;;;28.77;20.80;;;19.00;34.60;;;;;;10298335;28;20234;-80
2022/03/15 10:19:38;;;;;;;26.58;20.33;;;19.40;33.10;;;;;;10306364;28;20253;-82
2022/03/15 10:25:01;;;;;;;21.70;16.58;;;19.50;32.60;;;;;;10292913;28;20198;-83
2022/03/15 10:30:26;;;;;;;25.90;17.42;;;19.90;31.30;;;;;;10292892;28;20234;-80
2022/03/15 10:35:50;;;;;;;26.90;19.15;;;20.50;30.00;;;;;;10308206;28;20416;-81
2022/03/15 10:48:39;;;;;;;22.17;16.45;;;20.60;28.90;;;;;;10108497;29;20249;-86
2022/03/15 10:54:06;;;;;;;24.10;18.33;;;21.30;27.80;;;;;;10145211;29;20217;-86
2022/03/15 10:59:31;;;;;;;20.88;16.52;;;21.50;27.40;;;;;;10147938;29;20228;-86
2022/03/15 11:04:57;;;;;;;23.27;15.63;;;21.70;26.70;;;;;;10162516;29;20217;-86
2022/03/15 11:10:20;;;;;;;19.25;15.23;;;21.90;26.10;;;;;;10132167;29;20260;-83
2022/03/15 11:15:48;;;;;;;21.10;17.85;;;21.00;26.70;;;;;;10123689;29;20213;-87
2022/03/15 11:21:13;;;;;;;19.58;15.95;;;19.40;28.70;;;;;;10192705;28;20241;-86
2022/03/15 11:26:44;;;;;;;22.20;17.08;;;17.40;34.10;;;;;;10315799;28;20237;-84
2022/03/15 11:32:54;;;;;;;27.88;20.23;;;16.30;41.40;;;;;;10381440;28;20200;-88
2022/03/15 11:38:38;;;;;;;28.13;17.65;;;15.70;51.80;;;;;;10260767;29;20228;-85
2022/03/15 11:44:40;;;;;;;24.83;17.77;;;15.20;60.40;;;;;;10215252;29;20264;-86
2022/03/15 11:50:35;;;;;;;33.53;20.80;;;14.70;73.90;;;;;;10204899;29;20243;-85
2022/03/15 11:57:01;;;;;;;24.73;16.67;;;14.30;83.40;;;;;;10162250;29;20283;-85
2022/03/15 12:02:52;;;;;;;23.80;16.17;;;13.80;91.60;;;;;;10148712;29;20227;-87
2022/03/15 12:08:19;;;;;;;21.98;15.63;;;13.40;94.90;;;;;;10139314;29;20261;-85
2022/03/15 12:13:45;;;;;;;21.13;14.82;;;13.20;96.70;;;;;;10185022;28;20260;-86
2022/03/15 12:19:35;;;;;;;25.05;17.33;;;13.50;96.50;;;;;;10232294;28;20236;-86
2022/03/15 12:25:14;;;;;;;19.05;12.80;;;14.20;95.40;;;;;;10252735;29;20222;-87
2022/03/15 12:31:09;;;;;;;19.17;12.55;;;15.10;91.50;;;;;;10245870;29;20241;-85
2022/03/15 12:36:53;;;;;;;13.77;10.57;;;16.80;75.50;;;;;;10272439;28;20228;-85
2022/03/15 12:42:25;;;;;;;19.35;11.77;;;17.70;59.70;;;;;;10325100;28;20260;-83
2022/03/15 12:54:58;;;;;;;15.15;11.95;;;18.60;49.80;;;;;;10239974;29;20211;-83
2022/03/15 13:00:25;;;;;;;14.95;10.65;;;17.90;50.60;;;;;;10232274;29;20215;-84
2022/03/15 13:05:55;;;;;;;12.55;10.07;;;17.80;51.90;;;;;;10245358;28;20288;-82
2022/03/15 13:11:45;;;;;;;17.27;11.25;;;17.20;53.70;;;;;;10251577;29;20214;-82
2022/03/15 13:17:31;;;;;;;13.15;10.57;;;16.20;63.30;;;;;;10247522;29;20210;-83
2022/03/15 13:23:03;;;;;;;16.98;12.38;;;16.40;66.20;;;;;;10208646;29;20240;-81
2022/03/15 13:28:37;;;;;;;14.73;11.07;;;15.90;69.00;;;;;;10270468;28;20244;-78
